createdAt,value
2023-03-25T00:00:17.980Z,99908.31
2023-03-25T00:02:50.240Z,99904.88
2023-03-25T00:05:20.546Z,99907.47
2023-03-25T00:07:51.985Z,99912.75
2023-03-25T00:10:19.736Z,99914.41
2023-03-25T00:12:46.870Z,99916.16
2023-03-25T00:15:16.190Z,99909.25
2023-03-25T00:17:44.163Z,99908.38
2023-03-25T00:20:12.247Z,99896.31
2023-03-25T00:22:44.493Z,99900.63
2023-03-25T00:25:19.356Z,99897.13
2023-03-25T00:27:48.543Z,99905.81
2023-03-25T00:30:16.661Z,99897.16
2023-03-25T00:32:50.461Z,99900.66
2023-03-25T00:35:21.255Z,99892.84
2023-03-25T00:37:52.298Z,99896.34
2023-03-25T00:40:19.309Z,99897.22
2023-03-25T00:42:50.417Z,99894.63
2023-03-25T00:45:17.744Z,99891.16
2023-03-25T00:47:44.893Z,99890.31
2023-03-25T00:50:12.278Z,99894.69
2023-03-25T00:52:39.258Z,99888.63
2023-03-25T00:55:07.543Z,99891.22
2023-03-25T00:57:34.523Z,99900.78
2023-03-25T01:00:01.675Z,99886.94
2023-03-25T01:02:28.649Z,99899.94
2023-03-25T01:04:57.598Z,99906.91
2023-03-25T01:07:24.647Z,99903.44
2023-03-25T01:09:51.748Z,99898.25
2023-03-25T01:12:20.019Z,99897.38
2023-03-25T01:14:47.114Z,99893.06
2023-03-25T01:17:15.336Z,99890.47
2023-03-25T01:19:42.246Z,99888.75
2023-03-25T01:22:09.161Z,99886.16
2023-03-25T01:24:36.316Z,99880.97
2023-03-25T01:27:03.464Z,99881.00
2023-03-25T01:29:31.053Z,99886.16
2023-03-25T01:31:58.009Z,99876.69
2023-03-25T01:34:25.436Z,99871.44
2023-03-25T01:36:55.161Z,99869.72
2023-03-25T01:39:22.592Z,99867.13
2023-03-25T01:41:51.402Z,99865.41
2023-03-25T01:44:22.079Z,99867.16
2023-03-25T01:46:54.585Z,99866.31
2023-03-25T01:49:39.135Z,99858.53
2023-03-25T01:52:17.902Z,99856.81
2023-03-25T01:54:46.576Z,99856.84
2023-03-25T01:57:19.495Z,99852.53
2023-03-25T01:59:47.116Z,99854.25
2023-03-25T02:02:15.721Z,99856.00
2023-03-25T02:04:59.169Z,99857.72
2023-03-25T02:07:33.195Z,99858.59
2023-03-25T02:10:04.894Z,99860.34
2023-03-25T02:12:31.833Z,99858.59
2023-03-25T02:15:02.378Z,99847.31
2023-03-25T02:17:56.360Z,99853.38
2023-03-25T02:21:13.910Z,99839.53
2023-03-25T02:24:16.955Z,99839.50
2023-03-25T02:27:13.829Z,99836.03
2023-03-25T02:30:28.243Z,99836.88
2023-03-25T02:33:42.698Z,99836.00
2023-03-25T02:36:45.657Z,99829.91
2023-03-25T02:39:40.582Z,99824.69
2023-03-25T02:42:40.704Z,99828.09
2023-03-25T02:45:34.148Z,99828.94
2023-03-25T02:48:08.434Z,99835.00
2023-03-25T02:50:44.381Z,99825.41
2023-03-25T02:53:18.222Z,99823.63
2023-03-25T02:55:48.006Z,99818.38
2023-03-25T02:58:19.332Z,99808.84
2023-03-25T03:00:46.735Z,99799.31
2023-03-25T03:03:13.816Z,99812.22
2023-03-25T03:05:46.301Z,99821.72
2023-03-25T03:08:49.988Z,99817.38
2023-03-25T03:11:30.331Z,99815.63
2023-03-25T03:14:11.878Z,99816.50
2023-03-25T03:17:20.113Z,99810.38
2023-03-25T03:19:58.314Z,99812.09
2023-03-25T03:23:12.282Z,99813.84
2023-03-25T03:25:54.472Z,99820.75
2023-03-25T03:28:32.973Z,99825.06
2023-03-25T03:31:52.171Z,99812.00
2023-03-25T03:34:34.621Z,99815.47
2023-03-25T03:37:04.403Z,99823.25
2023-03-25T03:39:36.612Z,99819.78
2023-03-25T03:42:23.669Z,99830.19
2023-03-25T03:44:57.010Z,99825.84
2023-03-25T03:47:32.491Z,99815.44
2023-03-25T03:50:09.276Z,99810.22
2023-03-25T03:52:46.199Z,99818.00
2023-03-25T03:55:19.064Z,99817.09
2023-03-25T03:57:53.111Z,99806.72
2023-03-25T04:00:29.613Z,99818.81
2023-03-25T04:03:06.050Z,99812.75
2023-03-25T04:05:36.654Z,99818.81
2023-03-25T04:08:26.475Z,99809.25
2023-03-25T04:11:01.620Z,99812.75
2023-03-25T04:13:35.153Z,99819.69
2023-03-25T04:16:02.496Z,99817.09
2023-03-25T04:18:29.802Z,99818.84
2023-03-25T04:20:56.770Z,99804.97
2023-03-25T04:23:23.654Z,99814.53
2023-03-25T04:25:53.484Z,99810.22
2023-03-25T04:28:20.793Z,99818.94
2023-03-25T04:30:55.549Z,99809.38
2023-03-25T04:33:23.692Z,99808.53
2023-03-25T04:35:51.558Z,99800.75
2023-03-25T04:38:19.774Z,99799.91
2023-03-25T04:40:47.483Z,99809.50
2023-03-25T04:43:17.897Z,99805.19
2023-03-25T04:45:49.589Z,99803.44
2023-03-25T04:48:30.436Z,99806.06
2023-03-25T04:50:59.198Z,99797.41
2023-03-25T04:53:27.292Z,99802.63
2023-03-25T04:55:55.183Z,99810.47
2023-03-25T04:58:22.996Z,99796.66
2023-03-25T05:00:52.249Z,99781.94
2023-03-25T05:03:24.360Z,99794.06
2023-03-25T05:05:52.814Z,99788.88
2023-03-25T05:08:21.676Z,99787.16
2023-03-25T05:10:49.639Z,99782.84
2023-03-25T05:13:17.066Z,99790.66
2023-03-25T05:15:44.167Z,99794.16
2023-03-25T05:18:16.157Z,99783.75
2023-03-25T05:20:46.893Z,99778.53
2023-03-25T05:23:17.954Z,99785.50
2023-03-25T05:25:51.337Z,99774.25
2023-03-25T05:28:19.516Z,99778.56
2023-03-25T05:30:47.432Z,99780.31
2023-03-25T05:33:17.062Z,99786.41
2023-03-25T05:35:45.219Z,99787.28
2023-03-25T05:38:13.418Z,99772.66
2023-03-25T05:40:40.497Z,99792.47
2023-03-25T05:43:07.923Z,99791.63
2023-03-25T05:45:38.221Z,99791.59
2023-03-25T05:48:05.482Z,99787.22
2023-03-25T05:50:32.637Z,99791.59
2023-03-25T05:52:59.938Z,99789.81
2023-03-25T05:55:28.154Z,99788.06
2023-03-25T05:57:56.886Z,99796.72
2023-03-25T06:00:24.602Z,99790.63
2023-03-25T06:02:52.225Z,99788.88
2023-03-25T06:05:23.552Z,99786.22
2023-03-25T06:07:51.165Z,99789.69
2023-03-25T06:10:18.732Z,99803.50
2023-03-25T06:12:47.384Z,99802.63
2023-03-25T06:15:18.106Z,99804.28
2023-03-25T06:17:47.238Z,99806.88
2023-03-25T06:20:16.597Z,99804.25
2023-03-25T06:22:45.797Z,99803.31
2023-03-25T06:25:20.619Z,99809.34
2023-03-25T06:27:50.023Z,99816.25
2023-03-25T06:30:21.798Z,99803.13
2023-03-25T06:32:50.516Z,99812.69
2023-03-25T06:35:20.165Z,99815.25
2023-03-25T06:37:48.911Z,99814.31
2023-03-25T06:40:24.931Z,99812.50
2023-03-25T06:42:51.943Z,99803.78
2023-03-25T06:45:44.453Z,99819.28
2023-03-25T06:48:18.401Z,99826.16
2023-03-25T06:50:45.733Z,99806.03
2023-03-25T06:53:12.720Z,99810.28
2023-03-25T06:55:39.644Z,99804.13
2023-03-25T06:58:06.612Z,99805.78
2023-03-25T07:00:33.503Z,99816.13
2023-03-25T07:03:01.698Z,99809.09
2023-03-25T07:05:28.807Z,99802.91
2023-03-25T07:07:55.828Z,99803.66
2023-03-25T07:10:22.737Z,99800.13
2023-03-25T07:12:49.606Z,99795.66
2023-03-25T07:15:16.625Z,99800.75
2023-03-25T07:17:49.106Z,99811.00
2023-03-25T07:20:17.119Z,99803.00
2023-03-25T07:22:44.274Z,99805.47
2023-03-25T07:25:11.177Z,99804.47
2023-03-25T07:27:38.069Z,99792.19
2023-03-25T07:30:09.922Z,99804.19
2023-03-25T07:32:36.854Z,99807.53
2023-03-25T07:35:04.826Z,99815.41
2023-03-25T07:37:31.888Z,99804.84
2023-03-25T07:39:58.803Z,99807.38
2023-03-25T07:42:25.671Z,99801.19
2023-03-25T07:45:02.940Z,99809.81
2023-03-25T07:47:31.269Z,99801.09
2023-03-25T07:49:58.215Z,99805.44
2023-03-25T07:52:25.166Z,99813.28
2023-03-25T07:54:52.087Z,99809.72
2023-03-25T07:57:18.972Z,99814.03
2023-03-25T07:59:45.854Z,99803.59
2023-03-25T08:02:14.067Z,99798.47
2023-03-25T08:04:41.032Z,99802.69
2023-03-25T08:07:08.102Z,99801.91
2023-03-25T08:09:35.319Z,99812.34
2023-03-25T08:12:02.315Z,99809.75
2023-03-25T08:14:29.211Z,99794.94
2023-03-25T08:16:56.144Z,99801.06
2023-03-25T08:19:23.072Z,99807.13
2023-03-25T08:21:49.959Z,99806.06
2023-03-25T08:24:17.041Z,99805.13
2023-03-25T08:26:44.463Z,99797.28
2023-03-25T08:29:11.599Z,99816.94
2023-03-25T08:31:39.126Z,99799.41
2023-03-25T08:34:06.856Z,99812.28
2023-03-25T08:36:33.823Z,99824.41
2023-03-25T08:39:01.496Z,99816.47
2023-03-25T08:41:28.404Z,99810.31
2023-03-25T08:43:55.294Z,99822.47
2023-03-25T08:46:23.194Z,99806.72
2023-03-25T08:48:50.423Z,99812.72
2023-03-25T08:51:18.020Z,99819.63
2023-03-25T08:53:45.002Z,99814.28
2023-03-25T08:56:11.914Z,99813.28
2023-03-25T08:58:38.871Z,99815.81
2023-03-25T09:01:06.684Z,99812.25
2023-03-25T09:03:33.940Z,99825.22
2023-03-25T09:06:05.839Z,99819.91
2023-03-25T09:08:33.148Z,99825.97
2023-03-25T09:11:00.248Z,99832.88
2023-03-25T09:13:27.141Z,99818.91
2023-03-25T09:15:54.291Z,99823.19
2023-03-25T09:18:21.524Z,99824.03
2023-03-25T09:20:48.462Z,99821.31
2023-03-25T09:23:16.255Z,99824.84
2023-03-25T09:25:43.204Z,99834.28
2023-03-25T09:28:10.389Z,99834.22
2023-03-25T09:30:37.299Z,99833.28
2023-03-25T09:33:04.368Z,99830.66
2023-03-25T09:35:31.310Z,99840.22
2023-03-25T09:37:58.327Z,99817.78
2023-03-25T09:40:25.455Z,99844.34
2023-03-25T09:43:29.919Z,99838.22
2023-03-25T09:45:57.728Z,99845.03
2023-03-25T09:48:38.414Z,99839.72
2023-03-25T09:51:25.530Z,99850.94
2023-03-25T09:54:00.405Z,99835.06
2023-03-25T09:56:31.470Z,99845.41
2023-03-25T09:59:11.479Z,99841.03
2023-03-25T10:01:39.988Z,99837.47
2023-03-25T10:04:33.884Z,99840.09
2023-03-25T10:07:32.158Z,99845.31
2023-03-25T10:10:19.370Z,99843.47
2023-03-25T10:13:22.836Z,99841.69
2023-03-25T10:16:29.471Z,99830.22
2023-03-25T10:19:27.804Z,99831.72
2023-03-25T10:22:04.481Z,99834.22
2023-03-25T10:24:51.096Z,99832.25
2023-03-25T10:27:38.087Z,99827.81
2023-03-25T10:30:23.317Z,99821.59
2023-03-25T10:32:57.482Z,99836.38
2023-03-25T10:35:31.198Z,99822.38
2023-03-25T10:38:13.909Z,99822.25
2023-03-25T10:40:53.503Z,99815.13
2023-03-25T10:43:34.654Z,99817.72
2023-03-25T10:46:34.012Z,99814.09
2023-03-25T10:49:01.341Z,99814.03
2023-03-25T10:51:32.753Z,99823.50
2023-03-25T10:54:00.549Z,99822.50
2023-03-25T10:56:36.347Z,99818.78
2023-03-25T10:59:27.991Z,99814.94
2023-03-25T11:01:56.621Z,99838.41
2023-03-25T11:04:46.279Z,99844.72
2023-03-25T11:07:24.625Z,99849.44
2023-03-25T11:09:51.812Z,99837.75
2023-03-25T11:12:33.244Z,99819.84
2023-03-25T11:15:19.589Z,99818.50
2023-03-25T11:17:48.388Z,99821.09
2023-03-25T11:20:22.230Z,99801.03
2023-03-25T11:22:53.548Z,99804.47
2023-03-25T11:25:29.091Z,99790.50
2023-03-25T11:27:59.340Z,99784.25
2023-03-25T11:30:26.729Z,99791.22
2023-03-25T11:33:05.286Z,99787.69
2023-03-25T11:35:38.620Z,99779.78
2023-03-25T11:38:23.698Z,99782.44
2023-03-25T11:40:56.757Z,99792.06
2023-03-25T11:43:33.500Z,99782.44
2023-03-25T11:46:10.762Z,99797.41
2023-03-25T11:48:41.078Z,99795.63
2023-03-25T11:51:24.927Z,99790.31
2023-03-25T11:54:01.528Z,99794.59
2023-03-25T11:56:41.178Z,99785.91
2023-03-25T11:59:18.628Z,99779.84
2023-03-25T12:01:49.124Z,99790.34
2023-03-25T12:04:24.839Z,99782.47
2023-03-25T12:07:04.762Z,99772.81
2023-03-25T12:09:32.852Z,99780.59
2023-03-25T12:12:21.798Z,99774.34
2023-03-25T12:15:26.971Z,99780.22
2023-03-25T12:18:29.279Z,99772.00
2023-03-25T12:21:29.992Z,99755.09
2023-03-25T12:24:28.409Z,99756.41
2023-03-25T12:27:29.065Z,99766.63
2023-03-25T12:30:13.349Z,99751.50
2023-03-25T12:33:24.515Z,99766.31
2023-03-25T12:36:24.254Z,99764.50
2023-03-25T12:39:43.314Z,99759.16
2023-03-25T12:42:59.494Z,99763.44
2023-03-25T12:45:38.098Z,99766.19
2023-03-25T12:48:45.881Z,99771.66
2023-03-25T12:52:06.717Z,99759.47
2023-03-25T12:55:01.269Z,99781.41
2023-03-25T12:58:02.164Z,99842.19
2023-03-25T13:00:55.017Z,99846.59
2023-03-25T13:04:08.436Z,99836.56
2023-03-25T13:06:41.988Z,99830.47
2023-03-25T13:09:30.971Z,99834.84
2023-03-25T13:12:37.857Z,99830.34
2023-03-25T13:15:26.011Z,99830.88
2023-03-25T13:18:02.207Z,99826.88
2023-03-25T13:20:34.862Z,99817.56
2023-03-25T13:23:06.409Z,99819.50
2023-03-25T13:26:08.641Z,99837.09
2023-03-25T13:28:47.610Z,99831.94
2023-03-25T13:31:19.941Z,99837.25
2023-03-25T13:34:41.178Z,99847.84
2023-03-25T13:37:33.201Z,99837.63
2023-03-25T13:40:47.548Z,99844.69
2023-03-25T13:43:43.489Z,99835.22
2023-03-25T13:46:19.317Z,99830.09
2023-03-25T13:48:55.778Z,99827.53
2023-03-25T13:51:23.289Z,99827.53
2023-03-25T13:54:16.136Z,99817.94
2023-03-25T13:57:24.798Z,99811.84
2023-03-25T14:00:14.267Z,99803.97
2023-03-25T14:03:31.679Z,99794.25
2023-03-25T14:06:13.824Z,99792.34
2023-03-25T14:09:16.569Z,99791.31
2023-03-25T14:12:08.317Z,99787.63
2023-03-25T14:14:49.525Z,99775.31
2023-03-25T14:17:17.855Z,99770.78
2023-03-25T14:19:55.187Z,99772.34
2023-03-25T14:22:36.814Z,99767.78
2023-03-25T14:25:03.731Z,99762.34
2023-03-25T14:27:34.135Z,99770.91
2023-03-25T14:30:08.475Z,99772.53
2023-03-25T14:32:38.872Z,99778.59
2023-03-25T14:35:33.960Z,99789.06
2023-03-25T14:38:07.516Z,99795.22
2023-03-25T14:40:59.091Z,99796.19
2023-03-25T14:43:46.624Z,99798.91
2023-03-25T14:46:14.362Z,99796.34
2023-03-25T14:48:52.740Z,99800.75
2023-03-25T14:51:41.106Z,99789.44
2023-03-25T14:54:41.393Z,99800.84
2023-03-25T14:57:16.013Z,99805.22
2023-03-25T14:59:48.944Z,99801.84
2023-03-25T15:02:21.328Z,99813.28
2023-03-25T15:05:11.943Z,99810.72
2023-03-25T15:07:45.875Z,99808.19
2023-03-25T15:10:25.434Z,99802.22
2023-03-25T15:13:01.320Z,99790.13
2023-03-25T15:15:45.343Z,99791.09
2023-03-25T15:18:37.076Z,99779.00
2023-03-25T15:21:12.026Z,99773.88
2023-03-25T15:23:41.996Z,99773.03
2023-03-25T15:26:48.182Z,99780.84
2023-03-25T15:29:42.917Z,99777.38
2023-03-25T15:32:49.172Z,99774.69
2023-03-25T15:36:12.097Z,99783.31
2023-03-25T15:39:15.370Z,99776.28
2023-03-25T15:42:22.206Z,99778.00
2023-03-25T15:45:14.451Z,99778.78
2023-03-25T15:48:14.322Z,99777.94
2023-03-25T15:51:07.177Z,99788.38
2023-03-25T15:54:00.710Z,99776.22
2023-03-25T15:56:42.036Z,99786.69
2023-03-25T15:59:51.515Z,99787.59
2023-03-25T16:02:46.363Z,99782.38
2023-03-25T16:05:16.063Z,99791.06
2023-03-25T16:07:43.713Z,99782.47
2023-03-25T16:10:19.174Z,99783.31
2023-03-25T16:12:48.171Z,99781.63
2023-03-25T16:15:26.092Z,99779.94
2023-03-25T16:17:53.672Z,99781.69
2023-03-25T16:20:26.755Z,99789.59
2023-03-25T16:22:57.115Z,99776.66
2023-03-25T16:25:35.564Z,99785.28
2023-03-25T16:28:05.830Z,99782.69
2023-03-25T16:30:43.138Z,99795.72
2023-03-25T16:33:10.622Z,99791.44
2023-03-25T16:35:59.773Z,99774.09
2023-03-25T16:38:27.373Z,99774.06
2023-03-25T16:41:18.412Z,99783.66
2023-03-25T16:43:45.724Z,99766.25
2023-03-25T16:46:23.471Z,99771.47
2023-03-25T16:48:54.835Z,99764.53
2023-03-25T16:51:36.761Z,99753.25
2023-03-25T16:54:09.913Z,99759.47
2023-03-25T16:56:39.232Z,99758.59
2023-03-25T16:59:11.787Z,99763.81
2023-03-25T17:01:43.101Z,99775.19
2023-03-25T17:04:39.236Z,99764.88
2023-03-25T17:07:12.519Z,99764.94
2023-03-25T17:09:44.124Z,99766.75
2023-03-25T17:12:18.128Z,99761.66
2023-03-25T17:14:48.317Z,99766.94
2023-03-25T17:17:41.597Z,99775.75
2023-03-25T17:20:20.927Z,99772.41
2023-03-25T17:23:09.194Z,99768.13
2023-03-25T17:26:08.136Z,99771.75
2023-03-25T17:29:01.351Z,99770.06
2023-03-25T17:31:33.955Z,99769.22
2023-03-25T17:34:05.334Z,99778.00
2023-03-25T17:36:36.299Z,99768.47
2023-03-25T17:39:16.409Z,99778.97
2023-03-25T17:41:43.463Z,99776.47
2023-03-25T17:44:18.169Z,99778.34
2023-03-25T17:46:45.296Z,99781.88
2023-03-25T17:49:16.835Z,99786.25
2023-03-25T17:51:44.443Z,99788.91
2023-03-25T17:54:11.371Z,99798.47
2023-03-25T17:56:39.490Z,99802.00
2023-03-25T17:59:14.826Z,99810.72
2023-03-25T18:01:41.920Z,99806.38
2023-03-25T18:04:12.931Z,99800.28
2023-03-25T18:06:42.633Z,99802.88
2023-03-25T18:09:19.169Z,99802.88
2023-03-25T18:11:49.643Z,99795.13
2023-03-25T18:14:16.644Z,99779.50
2023-03-25T18:16:43.606Z,99784.75
2023-03-25T18:19:28.167Z,99791.72
2023-03-25T18:21:55.147Z,99798.69
2023-03-25T18:24:22.634Z,99799.53
2023-03-25T18:26:50.658Z,99803.88
2023-03-25T18:29:24.250Z,99798.63
2023-03-25T18:31:51.870Z,99796.91
2023-03-25T18:34:20.850Z,99804.72
2023-03-25T18:36:49.410Z,99808.19
2023-03-25T18:39:19.828Z,99816.88
2023-03-25T18:41:46.742Z,99809.03
2023-03-25T18:44:14.133Z,99817.72
2023-03-25T18:46:41.510Z,99815.09
2023-03-25T18:49:18.197Z,99806.44
2023-03-25T18:51:47.810Z,99814.25
2023-03-25T18:54:16.382Z,99824.63
2023-03-25T18:56:43.392Z,99825.47
2023-03-25T18:59:11.806Z,99802.88
2023-03-25T19:01:39.180Z,99792.47
2023-03-25T19:04:06.190Z,99795.06
2023-03-25T19:06:33.177Z,99783.75
2023-03-25T19:09:00.796Z,99788.06
2023-03-25T19:11:28.312Z,99782.00
2023-03-25T19:13:55.453Z,99771.56
2023-03-25T19:16:22.393Z,99775.88
2023-03-25T19:18:49.471Z,99776.72
2023-03-25T19:21:19.196Z,99771.47
2023-03-25T19:23:46.860Z,99770.56
2023-03-25T19:26:14.206Z,99761.88
2023-03-25T19:28:41.243Z,99754.94
2023-03-25T19:31:08.466Z,99763.59
2023-03-25T19:33:35.458Z,99757.53
2023-03-25T19:36:04.337Z,99750.56
2023-03-25T19:38:32.704Z,99754.88
2023-03-25T19:41:09.574Z,99748.84
2023-03-25T19:43:37.068Z,99756.63
2023-03-25T19:46:05.390Z,99742.75
2023-03-25T19:48:33.208Z,99744.50
2023-03-25T19:51:00.221Z,99745.34
2023-03-25T19:53:28.155Z,99735.81
2023-03-25T19:55:55.897Z,99742.75
2023-03-25T19:58:24.580Z,99739.34
2023-03-25T20:00:52.895Z,99731.53
2023-03-25T20:03:22.558Z,99728.06
2023-03-25T20:05:56.168Z,99722.91
2023-03-25T20:08:23.424Z,99717.72
2023-03-25T20:10:50.568Z,99722.09
2023-03-25T20:13:17.603Z,99713.44
2023-03-25T20:15:44.600Z,99716.09
2023-03-25T20:18:11.601Z,99720.47
2023-03-25T20:20:40.433Z,99713.56
2023-03-25T20:23:07.678Z,99723.16
2023-03-25T20:25:34.591Z,99744.88
2023-03-25T20:28:01.615Z,99734.50
2023-03-25T20:30:28.462Z,99726.69
2023-03-25T20:32:55.335Z,99717.16
2023-03-25T20:35:22.527Z,99722.41
2023-03-25T20:37:49.647Z,99718.94
2023-03-25T20:40:18.115Z,99717.22
2023-03-25T20:42:46.787Z,99722.44
2023-03-25T20:45:16.350Z,99709.44
2023-03-25T20:47:43.686Z,99706.00
2023-03-25T20:50:14.458Z,99709.47
2023-03-25T20:52:41.825Z,99710.38
2023-03-25T20:55:09.958Z,99716.47
2023-03-25T20:57:38.106Z,99717.34
2023-03-25T21:00:07.237Z,99717.34
2023-03-25T21:02:34.980Z,99706.06
2023-03-25T21:05:03.427Z,99705.25
2023-03-25T21:07:32.331Z,99700.91
2023-03-25T21:09:59.502Z,99693.09
2023-03-25T21:12:36.355Z,99694.00
2023-03-25T21:15:10.669Z,99689.66
2023-03-25T21:17:37.721Z,99696.66
2023-03-25T21:20:08.096Z,99682.75
2023-03-25T21:22:35.879Z,99689.72
2023-03-25T21:25:02.767Z,99694.94
2023-03-25T21:27:39.287Z,99694.94
2023-03-25T21:30:09.622Z,99694.94
2023-03-25T21:32:37.844Z,99693.19
2023-03-25T21:35:05.250Z,99688.88
2023-03-25T21:37:37.630Z,99688.00
2023-03-25T21:40:08.164Z,99681.06
2023-03-25T21:42:38.193Z,99689.75
2023-03-25T21:45:07.598Z,99681.97
2023-03-25T21:47:36.022Z,99679.38
2023-03-25T21:50:09.221Z,99683.69
2023-03-25T21:52:36.636Z,99684.59
2023-03-25T21:55:03.800Z,99685.44
2023-03-25T21:57:31.823Z,99686.31
2023-03-25T21:59:58.723Z,99666.41
2023-03-25T22:02:25.794Z,99679.38
2023-03-25T22:04:52.794Z,99668.97
2023-03-25T22:07:19.671Z,99669.81
2023-03-25T22:09:48.145Z,99675.03
2023-03-25T22:12:15.050Z,99676.78
2023-03-25T22:14:41.946Z,99673.31
2023-03-25T22:17:08.900Z,99669.84
2023-03-25T22:19:35.990Z,99670.72
2023-03-25T22:22:03.518Z,99676.78
2023-03-25T22:24:31.242Z,99665.56
2023-03-25T22:26:58.204Z,99676.81
2023-03-25T22:29:25.633Z,99674.22
2023-03-25T22:31:55.708Z,99691.53
2023-03-25T22:34:22.638Z,99680.28
2023-03-25T22:36:50.269Z,99682.88
2023-03-25T22:39:20.002Z,99677.72
2023-03-25T22:41:46.929Z,99685.56
2023-03-25T22:44:16.822Z,99692.47
2023-03-25T22:46:45.384Z,99688.13
2023-03-25T22:49:12.558Z,99689.88
2023-03-25T22:51:39.536Z,99677.78
2023-03-25T22:54:07.400Z,99684.69
2023-03-25T22:56:34.370Z,99691.66
2023-03-25T22:59:06.476Z,99692.53
2023-03-25T23:01:34.411Z,99685.66
2023-03-25T23:04:02.444Z,99688.28
2023-03-25T23:06:29.972Z,99693.47
2023-03-25T23:08:58.097Z,99677.03
2023-03-25T23:11:28.015Z,99691.72
2023-03-25T23:14:02.318Z,99702.13
2023-03-25T23:16:31.145Z,99704.78
2023-03-25T23:18:58.577Z,99702.19
2023-03-25T23:21:29.329Z,99696.16
2023-03-25T23:23:59.329Z,99694.44
2023-03-25T23:26:34.889Z,99697.06
2023-03-25T23:29:04.648Z,99698.84
2023-03-25T23:31:34.147Z,99696.28
2023-03-25T23:34:06.710Z,99700.59
2023-03-25T23:36:38.456Z,99708.41
2023-03-25T23:39:08.746Z,99716.22
2023-03-25T23:41:36.455Z,99705.78
2023-03-25T23:44:04.802Z,99712.78
2023-03-25T23:46:32.211Z,99711.00
2023-03-25T23:49:02.444Z,99724.03
2023-03-25T23:51:36.455Z,99724.09
2023-03-25T23:54:06.406Z,99726.69
2023-03-25T23:56:33.660Z,99719.78
2023-03-25T23:59:01.505Z,99724.97
